Time;durP1;ratioP1;P1;durP2;ratioP2;P2;SDS_P1;SDS_P2;PMS_P1;PMS_P2;Temp;Humidity;BMP_temperature;BMP_pressure;BME280_temperature;BME280_humidity;BME280_pressure;Samples;Min_cycle;Max_cycle;Signal;HPM_P1;HPM_P2
2022/02/20 00:01:11;;;;;;;6.20;2.08;;;27.70;99.90;;;;;;5073880;28;20031;-73
2022/02/20 00:03:38;;;;;;;5.60;1.85;;;27.90;99.90;;;;;;5074054;28;20024;-73
2022/02/20 00:06:06;;;;;;;5.40;1.77;;;27.90;99.90;;;;;;5074009;28;20298;-73
2022/02/20 00:08:33;;;;;;;7.78;1.83;;;28.00;99.90;;;;;;5074021;28;20020;-73
2022/02/20 00:11:00;;;;;;;5.05;1.60;;;28.10;99.90;;;;;;5074089;28;20024;-73
2022/02/20 00:13:28;;;;;;;5.63;1.67;;;28.00;99.90;;;;;;5072698;28;20393;-74
2022/02/20 00:15:55;;;;;;;6.78;1.88;;;28.20;99.90;;;;;;5073958;28;20469;-74
2022/02/20 00:18:22;;;;;;;5.57;1.58;;;28.10;99.90;;;;;;5073964;28;20028;-74
2022/02/20 00:20:50;;;;;;;7.25;1.83;;;28.30;99.90;;;;;;5072276;28;20025;-73
2022/02/20 00:23:17;;;;;;;5.65;1.50;;;28.20;99.90;;;;;;5071683;28;20060;-73
2022/02/20 00:25:46;;;;;;;7.32;1.67;;;28.40;99.90;;;;;;5073676;28;20028;-74
2022/02/20 00:28:14;;;;;;;6.40;1.65;;;28.40;99.90;;;;;;5073860;28;20078;-74
2022/02/20 00:30:41;;;;;;;6.05;1.52;;;28.60;99.90;;;;;;5072252;28;20017;-73
2022/02/20 00:33:09;;;;;;;7.10;1.60;;;28.60;99.90;;;;;;5072465;28;20119;-74
2022/02/20 00:35:36;;;;;;;3.65;1.75;;;28.80;99.90;;;;;;5073474;28;20067;-75
2022/02/20 00:38:06;;;;;;;6.43;1.45;;;28.80;99.90;;;;;;5072321;28;20535;-74
2022/02/20 00:40:34;;;;;;;7.13;2.33;;;28.80;99.90;;;;;;5073565;28;20023;-74
2022/02/20 00:43:01;;;;;;;7.47;1.98;;;29.00;99.90;;;;;;5073725;28;20103;-74
2022/02/20 00:45:29;;;;;;;5.47;1.42;;;29.00;99.90;;;;;;5071996;28;20427;-74
2022/02/20 00:47:57;;;;;;;5.90;1.42;;;28.70;99.90;;;;;;5072328;28;20048;-74
2022/02/20 00:50:26;;;;;;;6.75;1.75;;;28.70;99.90;;;;;;5071939;28;20028;-73
2022/02/20 00:52:53;;;;;;;7.20;1.80;;;28.90;99.90;;;;;;5071880;28;20032;-73
2022/02/20 00:55:21;;;;;;;6.72;1.63;;;29.00;99.90;;;;;;5073295;28;20021;-74
2022/02/20 00:57:48;;;;;;;5.95;1.83;;;29.00;99.90;;;;;;5072018;28;20098;-74
2022/02/20 01:00:16;;;;;;;5.45;1.90;;;28.60;99.90;;;;;;5073222;28;20024;-73
2022/02/20 01:02:43;;;;;;;8.63;1.85;;;28.90;99.90;;;;;;5071994;28;20032;-74
2022/02/20 01:05:11;;;;;;;6.85;1.90;;;28.80;99.90;;;;;;5073173;28;20054;-74
2022/02/20 01:07:40;;;;;;;6.78;2.10;;;28.80;99.90;;;;;;5073159;28;20074;-75
2022/02/20 01:10:10;;;;;;;6.85;1.58;;;29.20;99.90;;;;;;5072117;28;20031;-74
2022/02/20 01:12:37;;;;;;;8.25;1.92;;;29.30;99.90;;;;;;5073114;28;20066;-74
2022/02/20 01:15:07;;;;;;;8.90;1.95;;;29.20;99.90;;;;;;5073158;28;20051;-74
2022/02/20 01:17:34;;;;;;;7.38;1.92;;;29.40;99.90;;;;;;5072957;28;20029;-74
2022/02/20 01:20:02;;;;;;;10.20;2.47;;;29.30;99.90;;;;;;5073245;28;20099;-74
2022/02/20 01:22:30;;;;;;;8.60;1.83;;;29.40;99.90;;;;;;5073260;28;20540;-73
2022/02/20 01:24:57;;;;;;;7.25;1.95;;;28.90;99.90;;;;;;5072960;28;20433;-74
2022/02/20 01:27:25;;;;;;;12.05;3.13;;;28.80;99.90;;;;;;5073013;28;20042;-74
2022/02/20 01:29:53;;;;;;;9.70;2.00;;;28.50;99.90;;;;;;5071657;28;20394;-72
2022/02/20 01:32:21;;;;;;;11.40;2.45;;;27.80;99.90;;;;;;5071558;28;20032;-75
2022/02/20 01:34:48;;;;;;;10.93;2.30;;;28.20;99.90;;;;;;5077333;28;20527;-75
2022/02/20 01:37:15;;;;;;;8.45;1.83;;;28.60;99.90;;;;;;5076897;28;20021;-75
2022/02/20 01:39:43;;;;;;;10.35;2.45;;;28.60;99.90;;;;;;5076942;28;20036;-75
2022/02/20 01:42:10;;;;;;;8.75;2.65;;;28.40;99.90;;;;;;5076661;28;20020;-75
2022/02/20 01:44:37;;;;;;;9.07;2.15;;;28.70;99.90;;;;;;5076831;28;20036;-74
2022/02/20 01:47:10;;;;;;;8.93;2.17;;;28.80;99.90;;;;;;5076816;28;20430;-74
2022/02/20 01:49:37;;;;;;;12.45;2.88;;;29.10;99.90;;;;;;5076949;28;20480;-74
2022/02/20 01:52:05;;;;;;;11.38;2.55;;;29.10;99.90;;;;;;5076600;28;20474;-74
2022/02/20 01:54:33;;;;;;;6.88;2.17;;;29.00;99.90;;;;;;5076646;28;20021;-75
2022/02/20 01:57:01;;;;;;;11.13;2.38;;;29.00;99.90;;;;;;5075173;28;20020;-74
2022/02/20 01:59:29;;;;;;;10.18;2.13;;;29.30;99.90;;;;;;5075169;28;20023;-74
2022/02/20 02:01:56;;;;;;;11.07;2.28;;;29.50;99.90;;;;;;5075257;28;20393;-75
2022/02/20 02:04:24;;;;;;;8.73;2.50;;;29.50;99.90;;;;;;5076344;28;20025;-74
2022/02/20 02:06:53;;;;;;;12.32;2.97;;;29.60;99.90;;;;;;5075170;28;20030;-74
2022/02/20 02:09:20;;;;;;;8.48;2.63;;;29.60;99.90;;;;;;5076299;28;20052;-73
2022/02/20 02:11:48;;;;;;;10.60;2.33;;;29.70;99.90;;;;;;5074880;28;20461;-75
2022/02/20 02:14:15;;;;;;;11.90;2.40;;;29.90;99.90;;;;;;5076435;28;20012;-75
2022/02/20 02:16:43;;;;;;;10.27;2.50;;;29.70;99.90;;;;;;5075050;28;20082;-75
2022/02/20 02:19:11;;;;;;;10.75;2.55;;;29.80;99.90;;;;;;5074661;28;20017;-75
2022/02/20 02:21:39;;;;;;;8.18;2.58;;;30.10;99.90;;;;;;5074743;28;20021;-76
2022/02/20 02:24:07;;;;;;;10.73;2.70;;;29.90;99.90;;;;;;5075736;28;20123;-75
2022/02/20 02:26:34;;;;;;;9.93;2.80;;;30.00;99.90;;;;;;5076091;28;20449;-76
2022/02/20 02:29:02;;;;;;;10.45;2.42;;;30.20;99.90;;;;;;5075947;28;20363;-76
2022/02/20 02:31:29;;;;;;;12.57;2.70;;;30.10;99.90;;;;;;5074719;28;20016;-75
2022/02/20 02:33:56;;;;;;;9.43;2.33;;;30.00;99.90;;;;;;5074276;28;20491;-74
2022/02/20 02:36:24;;;;;;;12.15;2.85;;;30.00;99.90;;;;;;5074543;28;20119;-75
2022/02/20 02:38:51;;;;;;;10.95;2.85;;;29.80;99.90;;;;;;5074399;28;20444;-75
2022/02/20 02:41:18;;;;;;;7.55;2.40;;;29.80;99.90;;;;;;5074447;28;20466;-78
2022/02/20 02:43:46;;;;;;;9.45;2.58;;;29.70;99.90;;;;;;5075962;28;20099;-75
2022/02/20 02:46:13;;;;;;;14.48;2.67;;;29.80;99.90;;;;;;5057040;28;20440;-75
2022/02/20 02:48:50;;;;;;;12.48;2.88;;;29.80;99.90;;;;;;5075696;28;20020;-76
2022/02/20 02:51:17;;;;;;;9.32;2.60;;;29.80;99.90;;;;;;5075586;28;20474;-75
2022/02/20 02:53:45;;;;;;;10.30;2.55;;;29.90;99.90;;;;;;5074093;28;20478;-74
2022/02/20 02:56:12;;;;;;;10.32;2.33;;;29.90;99.90;;;;;;5075388;28;20024;-75
2022/02/20 02:58:39;;;;;;;9.30;2.33;;;29.80;99.90;;;;;;5075307;28;20052;-75
2022/02/20 03:01:07;;;;;;;8.85;2.40;;;30.10;99.90;;;;;;5074505;28;20064;-75
2022/02/20 03:03:34;;;;;;;8.07;2.28;;;30.40;99.90;;;;;;5073983;28;20561;-74
2022/02/20 03:06:06;;;;;;;8.90;2.55;;;30.40;99.90;;;;;;5073858;28;20028;-74
2022/02/20 03:08:33;;;;;;;11.93;3.10;;;30.40;99.90;;;;;;5075235;28;20139;-76
2022/02/20 03:11:01;;;;;;;9.90;2.63;;;30.20;99.90;;;;;;5073869;28;20074;-76
2022/02/20 03:13:28;;;;;;;8.85;2.65;;;30.30;99.90;;;;;;5075115;28;20024;-74
2022/02/20 03:15:56;;;;;;;8.55;2.63;;;30.20;99.90;;;;;;5073677;28;20025;-74
2022/02/20 03:18:23;;;;;;;8.10;2.42;;;30.00;99.90;;;;;;5073891;28;20028;-75
2022/02/20 03:20:50;;;;;;;7.38;2.47;;;30.30;99.90;;;;;;5073764;28;20024;-74
2022/02/20 03:23:18;;;;;;;7.63;2.90;;;30.60;99.90;;;;;;5073536;28;20027;-74
2022/02/20 03:25:45;;;;;;;7.70;2.53;;;30.30;99.90;;;;;;5074677;28;20025;-75
2022/02/20 03:28:12;;;;;;;7.78;2.40;;;30.80;99.90;;;;;;5073612;28;20024;-74
2022/02/20 03:30:40;;;;;;;10.60;2.50;;;31.00;99.90;;;;;;5074692;28;20040;-74
2022/02/20 03:33:07;;;;;;;8.50;2.50;;;31.20;99.90;;;;;;5074785;28;20044;-74
2022/02/20 03:35:34;;;;;;;8.70;2.40;;;31.40;99.90;;;;;;5073451;28;20028;-75
2022/02/20 03:38:02;;;;;;;9.55;3.10;;;31.30;99.90;;;;;;5074594;28;20390;-75
2022/02/20 03:40:29;;;;;;;8.88;2.35;;;30.70;99.90;;;;;;5074493;28;20025;-76
2022/02/20 03:42:57;;;;;;;7.72;2.45;;;30.80;99.90;;;;;;5074625;28;20116;-75
2022/02/20 03:45:24;;;;;;;12.75;2.75;;;30.80;99.90;;;;;;5073023;28;20447;-75
2022/02/20 03:47:51;;;;;;;9.35;2.80;;;30.90;99.90;;;;;;5074669;28;20417;-75
2022/02/20 03:50:19;;;;;;;8.30;2.50;;;30.60;99.90;;;;;;5074395;28;20021;-75
2022/02/20 03:52:47;;;;;;;8.00;2.45;;;30.80;99.90;;;;;;5073230;28;20025;-75
2022/02/20 03:55:14;;;;;;;8.13;2.60;;;30.80;99.90;;;;;;5074309;28;20028;-75
2022/02/20 03:57:42;;;;;;;8.35;2.60;;;30.70;99.90;;;;;;5073470;28;20496;-75
2022/02/20 04:00:24;;;;;;;6.57;2.17;;;30.60;99.90;;;;;;5074365;28;20065;-75
2022/02/20 04:02:51;;;;;;;7.63;2.08;;;30.60;99.90;;;;;;5073069;28;20025;-75
2022/02/20 04:05:21;;;;;;;7.53;2.25;;;30.80;99.90;;;;;;5072625;28;20029;-76
2022/02/20 04:07:49;;;;;;;7.70;2.72;;;30.80;99.90;;;;;;5074121;28;20021;-74
2022/02/20 04:10:17;;;;;;;8.65;2.30;;;31.00;99.90;;;;;;5074045;28;20488;-74
2022/02/20 04:12:45;;;;;;;6.63;2.20;;;31.20;99.90;;;;;;5072749;28;20111;-74
2022/02/20 04:15:13;;;;;;;6.35;1.80;;;31.00;99.90;;;;;;5072862;28;20397;-76
2022/02/20 04:17:49;;;;;;;5.70;2.05;;;30.80;99.90;;;;;;5072607;28;20115;-75
2022/02/20 04:20:19;;;;;;;7.75;2.88;;;30.70;99.90;;;;;;5074076;28;20021;-75
2022/02/20 04:22:48;;;;;;;8.65;2.20;;;30.60;99.90;;;;;;5072341;28;20036;-75
2022/02/20 04:25:16;;;;;;;6.20;2.10;;;30.70;99.90;;;;;;5072284;28;20049;-75
2022/02/20 04:27:44;;;;;;;8.30;2.38;;;30.70;99.90;;;;;;5056006;28;20038;-75
2022/02/20 04:30:18;;;;;;;5.25;1.73;;;30.70;99.90;;;;;;5072514;28;20033;-76
2022/02/20 04:32:46;;;;;;;7.20;1.63;;;30.60;99.90;;;;;;5072565;28;20074;-76
2022/02/20 04:35:15;;;;;;;8.52;1.83;;;30.50;99.90;;;;;;5072337;28;20021;-75
2022/02/20 04:37:43;;;;;;;6.63;2.17;;;30.70;99.90;;;;;;5072274;28;20412;-76
2022/02/20 04:40:11;;;;;;;7.22;2.00;;;30.80;99.90;;;;;;5073405;28;20028;-77
2022/02/20 04:42:38;;;;;;;6.90;1.88;;;30.70;99.90;;;;;;5071924;28;20528;-77
2022/02/20 04:45:06;;;;;;;5.90;1.88;;;30.70;99.90;;;;;;5073445;28;20028;-77
2022/02/20 04:47:33;;;;;;;6.55;2.35;;;30.40;99.90;;;;;;5072084;28;20131;-77
2022/02/20 04:50:01;;;;;;;5.50;1.70;;;30.60;99.90;;;;;;5072152;28;20389;-77
2022/02/20 04:52:28;;;;;;;5.60;1.88;;;30.80;99.90;;;;;;5073301;28;20016;-77
2022/02/20 04:54:55;;;;;;;8.43;2.08;;;31.20;99.90;;;;;;5073510;28;20024;-77
2022/02/20 04:57:22;;;;;;;5.18;1.85;;;31.30;99.90;;;;;;5072044;28;20059;-78
2022/02/20 04:59:55;;;;;;;7.43;1.85;;;31.10;99.90;;;;;;5073306;28;20029;-78
2022/02/20 05:02:23;;;;;;;7.50;1.95;;;30.30;99.90;;;;;;5072007;28;20489;-79
2022/02/20 05:04:50;;;;;;;8.70;2.53;;;29.80;99.90;;;;;;5071747;28;20028;-77
2022/02/20 05:07:18;;;;;;;6.20;1.80;;;29.70;99.90;;;;;;5072868;28;20069;-78
2022/02/20 05:09:45;;;;;;;8.77;2.17;;;29.80;99.90;;;;;;5073184;28;20016;-78
2022/02/20 05:12:12;;;;;;;8.23;2.67;;;30.20;99.90;;;;;;5073230;28;20367;-78
2022/02/20 05:14:40;;;;;;;10.65;2.10;;;30.10;99.90;;;;;;5072980;28;20039;-78
2022/02/20 05:17:09;;;;;;;9.32;2.30;;;30.30;99.90;;;;;;5072854;28;20485;-76
2022/02/20 05:19:36;;;;;;;8.30;2.77;;;29.80;99.90;;;;;;5073100;28;20021;-78
2022/02/20 05:22:04;;;;;;;10.10;2.20;;;29.20;99.90;;;;;;5073085;28;20021;-78
2022/02/20 05:24:31;;;;;;;9.70;2.00;;;28.80;99.90;;;;;;5072837;28;20049;-79
2022/02/20 05:26:58;;;;;;;9.98;2.40;;;28.40;99.90;;;;;;5073054;28;20104;-79
2022/02/20 05:29:26;;;;;;;7.65;2.05;;;28.20;99.90;;;;;;5071657;28;20387;-78
2022/02/20 05:31:53;;;;;;;9.00;2.47;;;28.20;99.90;;;;;;5072955;28;20103;-79
2022/02/20 05:34:20;;;;;;;9.85;2.40;;;28.50;99.90;;;;;;5071626;28;20020;-77
2022/02/20 05:36:48;;;;;;;10.32;2.30;;;28.90;99.90;;;;;;5071767;28;20082;-78
2022/02/20 05:39:15;;;;;;;10.05;2.95;;;28.80;99.90;;;;;;5072884;28;20035;-78
2022/02/20 05:41:42;;;;;;;10.73;2.38;;;28.60;99.90;;;;;;5073218;28;20021;-79
2022/02/20 05:44:09;;;;;;;10.73;2.42;;;29.10;99.90;;;;;;5072927;28;20100;-78
2022/02/20 05:46:37;;;;;;;10.27;2.38;;;29.70;99.90;;;;;;5071713;28;20416;-77
2022/02/20 05:49:04;;;;;;;8.40;2.10;;;30.00;99.90;;;;;;5071851;28;20461;-77
2022/02/20 05:51:32;;;;;;;11.10;2.40;;;29.90;99.90;;;;;;5071731;28;20470;-77
2022/02/20 05:53:59;;;;;;;11.20;2.28;;;29.90;99.90;;;;;;5071479;28;20126;-78
2022/02/20 05:56:27;;;;;;;9.48;2.28;;;29.80;99.90;;;;;;5071684;28;20025;-77
2022/02/20 05:58:54;;;;;;;11.52;2.80;;;30.00;99.90;;;;;;5072328;28;20036;-77
2022/02/20 06:01:22;;;;;;;9.48;2.58;;;30.10;99.90;;;;;;5072698;28;20017;-78
2022/02/20 06:03:49;;;;;;;9.23;1.83;;;30.10;99.90;;;;;;5072339;28;20021;-78
2022/02/20 06:06:16;;;;;;;12.55;2.42;;;30.20;99.90;;;;;;5072456;28;20431;-78
2022/02/20 06:08:44;;;;;;;7.93;2.42;;;29.50;99.90;;;;;;5071091;28;20481;-79
2022/02/20 06:11:11;;;;;;;7.57;2.00;;;29.70;99.90;;;;;;5072617;28;20488;-78
2022/02/20 06:13:38;;;;;;;7.40;2.22;;;30.00;99.90;;;;;;5072752;28;20025;-78
2022/02/20 06:16:05;;;;;;;9.23;2.10;;;30.00;99.90;;;;;;5072566;28;20021;-78
2022/02/20 06:18:33;;;;;;;9.70;2.45;;;29.80;99.90;;;;;;5071147;28;20035;-74
2022/02/20 06:21:00;;;;;;;8.15;2.50;;;29.70;99.90;;;;;;5075021;28;20389;-75
2022/02/20 06:23:27;;;;;;;8.65;1.98;;;29.60;99.90;;;;;;5075871;28;20021;-75
2022/02/20 06:25:55;;;;;;;8.52;2.42;;;29.40;99.90;;;;;;5074652;28;20448;-76
2022/02/20 06:28:22;;;;;;;10.55;3.03;;;29.40;99.90;;;;;;5076120;28;20046;-76
2022/02/20 06:30:49;;;;;;;8.05;2.25;;;29.50;99.90;;;;;;5075950;28;20428;-75
2022/02/20 06:33:16;;;;;;;8.95;2.30;;;29.40;99.90;;;;;;5076073;28;20508;-75
2022/02/20 06:35:44;;;;;;;10.60;2.83;;;29.30;99.90;;;;;;5074654;28;20035;-75
2022/02/20 06:38:11;;;;;;;8.77;2.30;;;29.20;99.90;;;;;;5076077;28;20035;-76
2022/02/20 06:40:39;;;;;;;7.63;2.30;;;29.10;99.90;;;;;;5075689;28;20017;-75
2022/02/20 06:43:06;;;;;;;7.75;2.17;;;29.00;99.90;;;;;;5076022;28;20032;-75
2022/02/20 06:45:33;;;;;;;11.57;2.40;;;28.90;99.90;;;;;;5075602;28;20449;-75
2022/02/20 06:48:01;;;;;;;13.93;2.08;;;28.90;99.90;;;;;;5074744;28;20016;-76
2022/02/20 06:50:28;;;;;;;8.23;2.75;;;28.70;99.90;;;;;;5075385;28;20027;-75
2022/02/20 06:52:57;;;;;;;10.63;2.30;;;28.80;99.90;;;;;;5074245;28;20029;-75
2022/02/20 06:55:24;;;;;;;9.18;2.22;;;28.60;99.90;;;;;;5075483;28;20036;-74
2022/02/20 06:57:54;;;;;;;11.48;2.28;;;28.70;99.90;;;;;;5057783;28;20060;-74
2022/02/20 07:00:21;;;;;;;9.47;2.17;;;28.90;99.90;;;;;;5075409;28;20044;-74
2022/02/20 07:02:48;;;;;;;8.82;2.50;;;28.80;99.90;;;;;;5075499;28;20025;-74
2022/02/20 07:05:16;;;;;;;9.32;2.47;;;28.70;99.90;;;;;;5075063;28;20020;-74
2022/02/20 07:07:43;;;;;;;9.43;2.58;;;29.00;99.90;;;;;;5075315;28;20105;-74
2022/02/20 07:10:11;;;;;;;7.57;2.10;;;29.20;99.90;;;;;;5075145;28;20112;-75
2022/02/20 07:12:39;;;;;;;8.45;2.70;;;29.40;99.90;;;;;;5075302;28;20446;-75
2022/02/20 07:15:08;;;;;;;9.32;2.60;;;29.60;99.90;;;;;;5075130;28;20048;-74
2022/02/20 07:17:35;;;;;;;10.10;2.75;;;29.40;99.90;;;;;;5075022;28;20089;-74
2022/02/20 07:20:03;;;;;;;9.93;2.33;;;29.10;99.90;;;;;;5075130;28;20035;-75
2022/02/20 07:22:32;;;;;;;10.45;2.38;;;29.20;99.90;;;;;;5073629;28;20024;-74
2022/02/20 07:25:00;;;;;;;8.55;2.17;;;29.00;99.90;;;;;;5074774;28;20047;-75
2022/02/20 07:27:27;;;;;;;11.45;2.47;;;28.50;99.90;;;;;;5073600;28;20074;-74
2022/02/20 07:29:55;;;;;;;13.93;3.00;;;28.10;99.90;;;;;;5073277;28;20028;-75
2022/02/20 07:32:22;;;;;;;11.88;2.95;;;27.80;99.90;;;;;;5073155;28;20048;-75
2022/02/20 07:34:49;;;;;;;8.43;2.42;;;27.80;99.90;;;;;;5073363;28;20027;-73
2022/02/20 07:37:16;;;;;;;13.27;3.22;;;27.40;99.90;;;;;;5074935;28;20021;-74
2022/02/20 07:39:44;;;;;;;10.52;2.60;;;27.20;99.90;;;;;;5073143;28;20493;-74
2022/02/20 07:42:11;;;;;;;11.57;2.90;;;26.90;99.90;;;;;;5074520;28;20394;-75
2022/02/20 07:44:39;;;;;;;12.68;3.13;;;26.60;99.90;;;;;;5074555;28;20059;-75
2022/02/20 07:47:06;;;;;;;10.90;2.75;;;26.40;99.90;;;;;;5074283;28;20013;-74
2022/02/20 07:49:33;;;;;;;14.38;3.03;;;26.20;99.90;;;;;;5074471;28;20020;-75
2022/02/20 07:52:01;;;;;;;12.73;2.67;;;26.10;99.90;;;;;;5074443;28;20067;-75
2022/02/20 07:54:28;;;;;;;12.65;3.15;;;26.10;99.90;;;;;;5073115;28;20048;-74
2022/02/20 07:56:55;;;;;;;13.32;2.80;;;26.00;99.90;;;;;;5074250;28;20016;-74
2022/02/20 07:59:23;;;;;;;10.52;3.30;;;25.80;99.90;;;;;;5074116;28;20050;-75
2022/02/20 08:01:50;;;;;;;13.10;3.28;;;25.80;99.90;;;;;;5074002;28;20070;-74
2022/02/20 08:04:17;;;;;;;13.48;3.50;;;25.70;99.90;;;;;;5074082;28;20470;-73
2022/02/20 08:06:45;;;;;;;16.33;3.47;;;25.70;99.90;;;;;;5072828;28;20104;-74
2022/02/20 08:09:13;;;;;;;13.88;3.22;;;25.60;99.90;;;;;;5073979;28;20021;-74
2022/02/20 08:11:40;;;;;;;11.77;3.28;;;25.40;99.90;;;;;;5073937;28;20016;-74
2022/02/20 08:14:08;;;;;;;13.43;3.00;;;25.20;99.90;;;;;;5073949;28;20016;-73
2022/02/20 08:16:35;;;;;;;13.02;3.53;;;25.20;99.90;;;;;;5073876;28;20056;-75
2022/02/20 08:19:04;;;;;;;14.35;3.95;;;25.20;99.90;;;;;;5073781;28;20052;-74
2022/02/20 08:21:31;;;;;;;11.52;3.88;;;25.20;99.90;;;;;;5072507;28;20031;-75
2022/02/20 08:23:58;;;;;;;13.18;3.45;;;25.10;99.90;;;;;;5072191;28;20472;-74
2022/02/20 08:26:25;;;;;;;13.70;3.35;;;25.00;99.90;;;;;;5073463;28;20028;-73
2022/02/20 08:28:53;;;;;;;13.27;3.50;;;24.90;99.90;;;;;;5073709;28;20385;-75
2022/02/20 08:31:20;;;;;;;13.55;2.95;;;24.80;99.90;;;;;;5072448;28;20017;-74
2022/02/20 08:33:47;;;;;;;15.68;3.28;;;24.80;99.90;;;;;;5072313;28;20112;-75
2022/02/20 08:36:15;;;;;;;12.25;3.13;;;24.70;99.90;;;;;;5072257;28;20058;-73
2022/02/20 08:38:43;;;;;;;14.82;4.53;;;24.70;99.90;;;;;;5073439;28;20032;-74
2022/02/20 08:41:10;;;;;;;16.30;3.40;;;24.60;99.90;;;;;;5072213;28;20385;-74
2022/02/20 08:43:37;;;;;;;13.05;3.88;;;24.60;99.90;;;;;;5072991;28;20032;-74
2022/02/20 08:46:05;;;;;;;17.13;3.38;;;24.50;99.90;;;;;;5073328;28;20103;-74
2022/02/20 08:48:36;;;;;;;13.85;3.90;;;24.50;99.90;;;;;;5072012;28;20028;-75
2022/02/20 08:51:05;;;;;;;17.33;3.28;;;24.40;99.90;;;;;;5072154;28;20021;-73
2022/02/20 08:53:35;;;;;;;16.50;3.20;;;24.40;99.90;;;;;;5071998;28;20462;-74
2022/02/20 08:56:02;;;;;;;17.58;3.67;;;24.40;99.90;;;;;;5073273;28;20523;-74
2022/02/20 08:58:30;;;;;;;17.05;3.80;;;24.30;99.90;;;;;;5073035;28;20036;-73
2022/02/20 09:00:58;;;;;;;14.88;4.10;;;24.20;99.90;;;;;;5071931;28;20078;-73
2022/02/20 09:03:25;;;;;;;16.08;3.97;;;24.20;99.90;;;;;;5071800;28;20021;-74
2022/02/20 09:05:52;;;;;;;15.43;3.75;;;24.20;99.90;;;;;;5071790;28;20052;-74
2022/02/20 09:08:20;;;;;;;15.25;3.40;;;24.20;99.90;;;;;;5072984;28;20382;-75
2022/02/20 09:10:48;;;;;;;17.40;3.40;;;24.10;99.90;;;;;;5073197;28;20447;-75
2022/02/20 09:13:16;;;;;;;23.98;4.65;;;24.10;99.90;;;;;;5071793;28;20535;-73
2022/02/20 09:15:44;;;;;;;19.77;4.00;;;24.10;99.90;;;;;;5071731;28;20036;-74
2022/02/20 09:18:11;;;;;;;16.75;3.10;;;24.00;99.90;;;;;;5072891;28;20032;-75
2022/02/20 09:20:38;;;;;;;16.95;3.60;;;24.00;99.90;;;;;;5071774;28;20021;-74
2022/02/20 09:23:06;;;;;;;18.10;3.72;;;24.00;99.90;;;;;;5073009;28;20550;-76
2022/02/20 09:25:33;;;;;;;19.52;3.92;;;24.00;99.90;;;;;;5072691;28;20041;-74
2022/02/20 09:28:01;;;;;;;19.02;3.70;;;24.00;99.90;;;;;;5072884;28;20020;-73
2022/02/20 09:30:28;;;;;;;15.00;3.58;;;24.00;99.90;;;;;;5072983;28;20020;-74
2022/02/20 09:32:55;;;;;;;17.73;3.72;;;24.00;99.90;;;;;;5072980;28;20385;-73
2022/02/20 09:35:24;;;;;;;16.05;3.97;;;24.00;99.90;;;;;;5071644;28;20028;-74
2022/02/20 09:37:52;;;;;;;19.20;4.22;;;23.90;99.90;;;;;;5072912;28;20020;-72
2022/02/20 09:40:19;;;;;;;19.50;4.25;;;23.90;99.90;;;;;;5071574;28;20028;-74
2022/02/20 09:42:49;;;;;;;17.17;3.80;;;23.90;99.90;;;;;;5071585;28;20052;-73
2022/02/20 09:45:17;;;;;;;16.80;4.32;;;23.90;99.90;;;;;;5071397;28;20456;-74
2022/02/20 09:47:45;;;;;;;16.48;3.67;;;23.90;99.90;;;;;;5071452;28;20119;-71
2022/02/20 09:50:13;;;;;;;20.08;4.32;;;23.90;99.90;;;;;;5072721;28;20021;-72
2022/02/20 09:52:40;;;;;;;18.15;3.90;;;23.90;99.90;;;;;;5071394;28;20024;-72
2022/02/20 09:55:08;;;;;;;17.08;3.72;;;23.90;99.90;;;;;;5075558;28;20500;-73
2022/02/20 09:57:36;;;;;;;20.80;4.20;;;23.90;99.90;;;;;;5076629;28;20021;-73
2022/02/20 10:00:06;;;;;;;16.00;3.65;;;23.90;99.90;;;;;;5076525;28;20029;-74
2022/02/20 10:02:40;;;;;;;20.08;4.10;;;23.90;99.90;;;;;;5076532;28;20028;-73
2022/02/20 10:05:20;;;;;;;16.10;4.05;;;23.90;99.90;;;;;;5075284;28;20063;-73
2022/02/20 10:07:47;;;;;;;19.70;4.55;;;23.80;99.90;;;;;;5075190;28;20095;-73
2022/02/20 10:10:17;;;;;;;17.90;3.85;;;23.80;99.90;;;;;;5074980;28;20039;-72
2022/02/20 10:12:46;;;;;;;16.38;3.65;;;23.80;99.90;;;;;;5076217;28;20028;-73
2022/02/20 10:15:31;;;;;;;17.95;3.35;;;23.80;99.90;;;;;;5076244;28;20050;-72
2022/02/20 10:18:11;;;;;;;18.05;3.83;;;23.80;99.90;;;;;;5074853;28;20024;-73
2022/02/20 10:20:39;;;;;;;16.20;4.22;;;23.80;99.90;;;;;;5074786;28;20028;-73
2022/02/20 10:23:14;;;;;;;20.13;3.88;;;23.80;99.90;;;;;;5074745;28;20362;-73
2022/02/20 10:25:47;;;;;;;18.25;4.00;;;23.70;99.90;;;;;;5074610;28;20055;-73
2022/02/20 10:28:14;;;;;;;14.63;3.15;;;23.80;99.90;;;;;;5074611;28;20028;-73
2022/02/20 10:30:43;;;;;;;16.40;3.83;;;23.70;99.90;;;;;;5075974;28;20013;-73
2022/02/20 10:33:22;;;;;;;18.52;4.57;;;23.70;99.90;;;;;;5075991;28;20029;-73
2022/02/20 10:35:52;;;;;;;18.83;4.22;;;23.70;99.90;;;;;;5074801;28;20118;-71
2022/02/20 10:38:24;;;;;;;17.35;3.08;;;23.70;99.90;;;;;;5075891;28;20028;-72
2022/02/20 10:40:54;;;;;;;14.15;3.40;;;23.70;99.90;;;;;;5075920;28;20024;-73
2022/02/20 10:43:40;;;;;;;11.80;3.45;;;23.70;99.90;;;;;;5074509;28;20024;-73
2022/02/20 10:46:07;;;;;;;14.60;3.40;;;23.70;99.90;;;;;;5075573;28;20039;-73
2022/02/20 10:48:44;;;;;;;17.17;4.30;;;23.60;99.90;;;;;;5075712;28;20066;-73
2022/02/20 10:51:17;;;;;;;17.02;3.90;;;23.60;99.90;;;;;;5075753;28;20530;-73
2022/02/20 10:53:46;;;;;;;17.90;4.25;;;23.60;99.90;;;;;;5074220;28;20135;-73
2022/02/20 10:56:13;;;;;;;14.55;4.22;;;23.60;99.90;;;;;;5075597;28;20021;-74
2022/02/20 10:58:44;;;;;;;17.75;4.25;;;23.60;99.90;;;;;;5074140;28;20029;-74
2022/02/20 11:01:23;;;;;;;14.27;4.18;;;23.60;99.90;;;;;;5075397;28;20449;-73
2022/02/20 11:03:51;;;;;;;19.70;5.07;;;23.60;99.90;;;;;;5073987;28;20028;-73
2022/02/20 11:06:19;;;;;;;18.25;4.53;;;23.60;99.90;;;;;;5074752;28;20529;-73
2022/02/20 11:08:47;;;;;;;19.25;4.63;;;23.50;99.90;;;;;;5075285;28;20059;-73
2022/02/20 11:14:00;;;;;;;15.73;4.03;;;23.50;99.90;;;;;;5075315;28;20024;-73
2022/02/20 11:16:32;;;;;;;21.20;4.40;;;23.40;99.90;;;;;;5075193;28;20020;-73
2022/02/20 11:19:03;;;;;;;16.60;4.32;;;23.40;99.90;;;;;;5075269;28;20478;-72
2022/02/20 11:21:36;;;;;;;18.35;4.20;;;23.40;99.90;;;;;;5075138;28;20162;-73
2022/02/20 11:24:06;;;;;;;21.83;5.05;;;23.40;99.90;;;;;;5074881;28;20056;-73
2022/02/20 11:26:38;;;;;;;17.70;4.13;;;23.30;99.90;;;;;;5073595;28;20401;-73
2022/02/20 11:29:06;;;;;;;19.45;4.75;;;23.30;99.90;;;;;;5073491;28;20025;-73
2022/02/20 11:31:34;;;;;;;20.27;4.55;;;23.30;99.90;;;;;;5074987;28;20100;-74
2022/02/20 11:34:02;;;;;;;19.50;5.03;;;23.30;99.90;;;;;;5073439;28;20135;-73
2022/02/20 11:36:30;;;;;;;22.50;5.32;;;23.30;99.90;;;;;;5074700;28;20052;-73
2022/02/20 11:39:15;;;;;;;16.17;4.75;;;23.30;99.90;;;;;;5074809;28;20500;-73
2022/02/20 11:42:17;;;;;;;20.38;4.57;;;23.20;99.90;;;;;;5074780;28;20029;-73
2022/02/20 11:45:08;;;;;;;16.15;4.63;;;23.20;99.90;;;;;;5074714;28;20028;-72
2022/02/20 11:47:35;;;;;;;20.00;4.95;;;23.20;99.90;;;;;;5074222;28;20033;-74
2022/02/20 11:50:17;;;;;;;22.95;5.65;;;23.20;99.90;;;;;;5073199;28;20086;-73
2022/02/20 11:52:56;;;;;;;20.58;5.13;;;23.10;99.90;;;;;;5073192;28;20029;-75
2022/02/20 11:55:30;;;;;;;17.80;5.00;;;23.10;99.90;;;;;;5073031;28;20025;-75
2022/02/20 11:58:23;;;;;;;20.50;5.43;;;23.10;99.90;;;;;;5074613;28;20386;-75
2022/02/20 12:01:01;;;;;;;21.20;5.70;;;23.10;99.90;;;;;;5072927;28;20054;-75
2022/02/20 12:03:47;;;;;;;18.88;5.82;;;23.10;99.90;;;;;;5072824;28;20370;-75
2022/02/20 12:06:16;;;;;;;18.70;5.57;;;23.10;99.90;;;;;;5072762;28;20028;-75
2022/02/20 12:08:46;;;;;;;18.98;5.15;;;23.10;99.90;;;;;;5074148;28;20541;-75
2022/02/20 12:11:16;;;;;;;17.42;4.78;;;23.10;99.90;;;;;;5072871;28;20021;-75
2022/02/20 12:13:50;;;;;;;;;;;23.10;99.90;;;;;;5074473;28;20032;-74
2022/02/20 12:16:27;;;;;;;26.48;5.72;;;23.10;99.90;;;;;;5072689;28;19904;-75
2022/02/20 12:19:21;;;;;;;15.77;4.90;;;23.10;99.90;;;;;;5071766;28;20485;-74
2022/02/20 12:22:10;;;;;;;15.77;4.65;;;23.10;99.90;;;;;;5072643;28;20031;-73
2022/02/20 12:24:42;;;;;;;17.00;5.72;;;23.00;99.90;;;;;;5073310;28;20084;-73
2022/02/20 12:27:14;;;;;;;15.80;5.10;;;23.00;99.90;;;;;;5072506;28;20425;-74
2022/02/20 12:29:50;;;;;;;18.15;5.43;;;23.00;99.90;;;;;;5072346;28;20031;-74
2022/02/20 12:32:20;;;;;;;18.45;5.65;;;23.00;99.90;;;;;;5073803;28;20363;-75
2022/02/20 12:34:55;;;;;;;18.95;5.80;;;23.00;99.90;;;;;;5073678;28;20074;-74
2022/02/20 12:37:26;;;;;;;16.92;5.00;;;23.00;99.90;;;;;;5073658;28;20044;-73
2022/02/20 12:40:08;;;;;;;14.40;4.88;;;23.00;99.90;;;;;;5072371;28;20521;-73
2022/02/20 12:42:43;;;;;;;14.80;5.40;;;23.00;99.90;;;;;;5072371;28;20020;-74
2022/02/20 12:45:32;;;;;;;18.80;5.63;;;23.00;99.90;;;;;;5072129;28;20031;-74
2022/02/20 12:48:02;;;;;;;16.80;5.13;;;23.00;99.90;;;;;;5073923;28;20504;-75
2022/02/20 12:50:53;;;;;;;13.98;4.75;;;23.00;99.90;;;;;;5073386;28;20020;-74
2022/02/20 12:53:21;;;;;;;14.18;5.03;;;23.00;99.90;;;;;;5071912;28;20449;-74